Time;durP1;ratioP1;P1;durP2;ratioP2;P2;SDS_P1;SDS_P2;PMS_P1;PMS_P2;Temp;Humidity;BMP_temperature;BMP_pressure;BME280_temperature;BME280_humidity;BME280_pressure;Samples;Min_cycle;Max_cycle;Signal;HPM_P1;HPM_P2
2021/07/05 00:02:14;;;;;;;3.43;3.00;;;15.70;99.90;;;;;;5033059;28;20979;-74
2021/07/05 00:04:40;;;;;;;3.73;2.90;;;15.70;99.90;;;;;;5033311;28;20429;-74
2021/07/05 00:07:06;;;;;;;3.10;2.80;;;15.70;99.90;;;;;;5038386;28;21028;-74
2021/07/05 00:09:32;;;;;;;3.77;2.97;;;15.70;99.90;;;;;;5037631;28;20419;-74
2021/07/05 00:11:58;;;;;;;3.37;2.83;;;15.70;99.90;;;;;;5037464;28;20197;-73
2021/07/05 00:14:23;;;;;;;6.10;3.40;;;15.70;99.90;;;;;;5037139;28;20421;-74
2021/07/05 00:16:49;;;;;;;3.73;3.13;;;15.70;99.90;;;;;;5039210;28;20241;-74
2021/07/05 00:19:15;;;;;;;3.80;3.27;;;15.70;99.90;;;;;;5041235;28;20229;-75
2021/07/05 00:21:40;;;;;;;3.33;2.90;;;15.70;99.90;;;;;;5050491;28;20461;-73
2021/07/05 00:24:06;;;;;;;3.20;3.00;;;15.70;99.90;;;;;;5047111;28;20539;-74
2021/07/05 00:26:32;;;;;;;5.20;3.27;;;15.70;99.90;;;;;;5045891;28;20202;-73
2021/07/05 00:28:58;;;;;;;3.70;3.40;;;15.70;99.90;;;;;;5056918;28;20170;-74
2021/07/05 00:31:24;;;;;;;3.50;2.70;;;15.60;99.90;;;;;;5055618;28;20362;-74
2021/07/05 00:33:49;;;;;;;3.50;3.07;;;15.70;99.90;;;;;;5056515;28;20497;-74
2021/07/05 00:36:15;;;;;;;3.57;3.27;;;15.70;99.90;;;;;;5056547;28;20194;-74
2021/07/05 00:38:40;;;;;;;3.37;3.07;;;15.70;99.90;;;;;;5039523;28;20183;-74
2021/07/05 00:41:06;;;;;;;3.53;3.23;;;15.70;99.90;;;;;;5036714;28;20748;-74
2021/07/05 00:43:32;;;;;;;3.60;3.30;;;15.70;99.90;;;;;;5036020;28;20758;-74
2021/07/05 00:45:58;;;;;;;3.47;3.17;;;15.70;99.90;;;;;;5036828;28;20330;-74
2021/07/05 00:48:24;;;;;;;3.20;2.90;;;15.70;99.90;;;;;;5037310;28;20524;-74
2021/07/05 00:50:50;;;;;;;3.40;2.87;;;15.70;99.90;;;;;;5037076;28;20221;-74
2021/07/05 00:53:16;;;;;;;3.83;3.13;;;15.60;99.90;;;;;;5037209;28;20421;-74
2021/07/05 00:55:43;;;;;;;3.33;2.70;;;15.70;99.90;;;;;;5037421;28;20437;-75
2021/07/05 00:58:09;;;;;;;4.87;3.80;;;15.60;99.90;;;;;;5037117;28;20794;-74
2021/07/05 01:00:35;;;;;;;5.50;3.10;;;15.60;99.90;;;;;;5056133;28;20447;-74
2021/07/05 01:03:01;;;;;;;4.10;3.40;;;15.60;99.90;;;;;;5056186;28;20541;-74
2021/07/05 01:05:27;;;;;;;3.30;3.00;;;15.60;99.90;;;;;;5058105;28;20836;-75
2021/07/05 01:07:53;;;;;;;4.30;2.70;;;15.60;99.90;;;;;;5060392;28;20408;-74
2021/07/05 01:10:21;;;;;;;9.67;3.20;;;15.60;99.90;;;;;;5046487;28;20855;-74
2021/07/05 01:12:47;;;;;;;3.47;3.13;;;15.60;99.90;;;;;;5035915;28;20182;-76
2021/07/05 01:15:16;;;;;;;3.30;3.00;;;15.50;99.90;;;;;;5035931;28;20520;-74
2021/07/05 01:17:43;;;;;;;3.47;3.10;;;15.50;99.90;;;;;;5034935;28;20496;-74
2021/07/05 01:20:11;;;;;;;3.70;3.37;;;15.40;99.90;;;;;;5048415;28;20448;-74
2021/07/05 01:22:37;;;;;;;3.87;3.47;;;15.40;99.90;;;;;;5055489;28;20408;-74
2021/07/05 01:25:04;;;;;;;5.40;3.00;;;15.50;99.90;;;;;;5055746;28;20490;-73
2021/07/05 01:27:29;;;;;;;4.00;3.20;;;15.50;99.90;;;;;;5054736;28;20730;-74
2021/07/05 01:29:55;;;;;;;3.67;3.37;;;15.40;99.90;;;;;;5048831;28;20437;-73
2021/07/05 01:32:21;;;;;;;3.90;3.50;;;15.40;99.90;;;;;;5035306;28;20252;-74
2021/07/05 01:34:47;;;;;;;3.60;3.30;;;15.40;99.90;;;;;;5051320;28;20186;-74
2021/07/05 01:37:12;;;;;;;4.13;3.70;;;15.50;99.90;;;;;;5055421;28;20171;-74
2021/07/05 01:39:38;;;;;;;3.00;2.70;;;15.50;99.90;;;;;;5055453;28;20436;-74
2021/07/05 01:42:05;;;;;;;3.83;3.30;;;15.50;99.90;;;;;;5049116;28;20282;-74
2021/07/05 01:44:31;;;;;;;3.93;3.40;;;15.40;99.90;;;;;;5058826;28;20432;-74
2021/07/05 01:46:57;;;;;;;3.00;2.80;;;15.40;99.90;;;;;;5059181;28;20520;-74
2021/07/05 01:49:23;;;;;;;3.20;2.90;;;15.30;99.90;;;;;;5058747;28;20434;-74
2021/07/05 01:51:49;;;;;;;4.43;3.47;;;15.30;99.90;;;;;;5068600;28;20158;-74
2021/07/05 01:54:15;;;;;;;3.07;2.77;;;15.30;99.90;;;;;;5079599;28;20457;-74
2021/07/05 01:56:43;;;;;;;3.47;3.13;;;15.20;99.90;;;;;;5079435;28;20198;-75
2021/07/05 01:59:09;;;;;;;4.53;3.27;;;15.20;99.90;;;;;;5077761;28;20478;-74
2021/07/05 02:01:35;;;;;;;2.93;2.63;;;15.20;99.90;;;;;;5073936;28;20551;-74
2021/07/05 02:04:01;;;;;;;3.87;3.47;;;15.20;99.90;;;;;;5055069;28;20162;-74
2021/07/05 02:06:27;;;;;;;3.63;3.33;;;15.20;99.90;;;;;;5054472;28;20429;-75
2021/07/05 02:08:53;;;;;;;3.50;3.20;;;15.30;99.90;;;;;;5055299;28;20231;-74
2021/07/05 02:11:19;;;;;;;4.40;3.70;;;15.40;99.90;;;;;;5054307;28;20435;-75
2021/07/05 02:13:44;;;;;;;4.27;2.90;;;15.40;99.90;;;;;;5052931;28;20170;-74
2021/07/05 02:16:10;;;;;;;2.97;2.77;;;15.50;99.90;;;;;;5055200;28;20213;-74
2021/07/05 02:18:36;;;;;;;3.90;3.20;;;15.50;99.90;;;;;;5054388;28;20490;-74
2021/07/05 02:21:05;;;;;;;3.23;2.93;;;15.50;99.90;;;;;;5055121;28;20201;-74
2021/07/05 02:23:31;;;;;;;3.53;3.23;;;15.50;99.90;;;;;;5047210;28;20170;-74
2021/07/05 02:25:57;;;;;;;4.97;2.60;;;15.60;99.90;;;;;;5051685;28;21013;-74
2021/07/05 02:28:26;;;;;;;3.73;3.23;;;15.60;99.90;;;;;;5052836;28;20511;-74
2021/07/05 02:30:52;;;;;;;4.13;3.07;;;15.70;99.90;;;;;;5034132;28;20277;-74
2021/07/05 02:33:21;;;;;;;3.93;3.53;;;15.70;99.90;;;;;;5035131;28;20445;-74
2021/07/05 02:35:47;;;;;;;4.43;3.07;;;15.80;99.90;;;;;;5036485;28;20207;-74
2021/07/05 02:38:13;;;;;;;3.30;3.00;;;15.80;99.90;;;;;;5034084;28;20990;-74
2021/07/05 02:40:42;;;;;;;3.13;2.87;;;15.90;99.90;;;;;;5034025;28;20205;-74
2021/07/05 02:43:09;;;;;;;3.53;3.23;;;15.90;99.90;;;;;;5034177;28;20919;-75
2021/07/05 02:45:36;;;;;;;3.10;2.90;;;16.00;99.90;;;;;;5047010;28;20468;-75
2021/07/05 02:48:08;;;;;;;2.87;2.67;;;16.10;99.90;;;;;;5053941;28;20420;-74
2021/07/05 02:50:35;;;;;;;2.97;2.70;;;16.10;99.90;;;;;;5054273;28;20421;-73
2021/07/05 02:53:01;;;;;;;3.40;2.50;;;16.20;99.90;;;;;;5054187;28;20503;-73
2021/07/05 02:55:27;;;;;;;2.93;2.60;;;16.30;99.90;;;;;;5052041;28;20476;-73
2021/07/05 02:57:53;;;;;;;3.20;2.90;;;16.30;99.90;;;;;;5053987;28;20190;-73
2021/07/05 03:00:38;;;;;;;3.57;2.90;;;16.40;99.90;;;;;;5038228;28;20456;-73
2021/07/05 03:03:04;;;;;;;4.37;3.07;;;16.40;99.90;;;;;;5032642;28;20503;-73
2021/07/05 03:05:30;;;;;;;3.37;2.73;;;16.40;99.90;;;;;;5038774;28;20441;-74
2021/07/05 03:07:57;;;;;;;3.30;3.00;;;16.50;99.90;;;;;;5050533;28;20820;-73
2021/07/05 03:10:25;;;;;;;2.40;2.20;;;16.60;99.90;;;;;;5053912;28;20428;-73
2021/07/05 03:12:52;;;;;;;2.83;2.43;;;16.60;99.90;;;;;;5053378;28;20490;-73
2021/07/05 03:15:18;;;;;;;4.07;2.70;;;16.70;99.90;;;;;;5056113;28;20436;-74
2021/07/05 03:17:45;;;;;;;4.70;2.50;;;16.70;99.90;;;;;;5035566;28;20499;-74
2021/07/05 03:20:15;;;;;;;2.67;2.47;;;16.70;99.90;;;;;;5033588;28;20455;-74
2021/07/05 03:22:40;;;;;;;2.63;2.43;;;16.70;99.90;;;;;;5033626;28;20394;-74
2021/07/05 03:25:09;;;;;;;3.90;2.67;;;16.80;99.90;;;;;;5033361;28;20835;-74
2021/07/05 03:27:34;;;;;;;3.70;2.57;;;16.80;99.90;;;;;;5041112;28;20537;-74
2021/07/05 03:30:00;;;;;;;2.83;2.17;;;16.90;99.90;;;;;;5050265;28;20436;-73
2021/07/05 03:32:26;;;;;;;2.20;2.00;;;17.00;99.90;;;;;;5034198;28;20181;-74
2021/07/05 03:34:52;;;;;;;2.77;2.10;;;17.00;99.90;;;;;;5033528;28;20413;-74
2021/07/05 03:37:18;;;;;;;3.10;2.37;;;17.10;99.90;;;;;;5033409;28;20224;-73
2021/07/05 03:39:44;;;;;;;2.45;2.25;;;17.10;99.90;;;;;;5032209;28;20421;-74
2021/07/05 03:42:09;;;;;;;2.80;2.37;;;17.20;99.90;;;;;;5037271;28;20190;-74
2021/07/05 03:44:35;;;;;;;2.70;2.50;;;17.20;99.90;;;;;;5036153;28;20417;-74
2021/07/05 03:47:00;;;;;;;2.70;2.50;;;17.30;99.90;;;;;;5036508;28;20439;-74
2021/07/05 03:49:26;;;;;;;3.77;2.50;;;17.40;99.90;;;;;;5050877;28;20264;-74
2021/07/05 03:51:52;;;;;;;2.53;2.33;;;17.50;99.90;;;;;;5057690;28;20177;-73
2021/07/05 03:54:18;;;;;;;3.37;2.40;;;17.60;99.90;;;;;;5057728;28;20639;-74
2021/07/05 03:56:44;;;;;;;4.17;2.37;;;17.60;99.90;;;;;;5056749;28;20578;-73
2021/07/05 03:59:10;;;;;;;2.20;2.00;;;17.60;99.90;;;;;;5055326;28;20444;-74
2021/07/05 04:01:35;;;;;;;4.23;2.80;;;17.70;99.90;;;;;;5056846;28;20483;-74
2021/07/05 04:04:01;;;;;;;2.40;2.20;;;17.80;99.90;;;;;;5057086;28;20436;-74
2021/07/05 04:06:27;;;;;;;2.30;2.10;;;17.80;99.90;;;;;;5043180;28;20214;-73
2021/07/05 04:08:55;;;;;;;2.60;2.20;;;17.90;99.90;;;;;;5037406;28;20167;-73
2021/07/05 04:11:21;;;;;;;2.30;2.10;;;17.90;99.90;;;;;;5039208;28;20440;-74
2021/07/05 04:13:46;;;;;;;2.20;1.70;;;18.00;99.90;;;;;;5037412;28;20756;-74
2021/07/05 04:16:12;;;;;;;2.60;2.40;;;18.00;99.90;;;;;;5037081;28;20191;-74
2021/07/05 04:18:38;;;;;;;3.70;2.40;;;18.10;99.90;;;;;;5042701;28;20239;-74
2021/07/05 04:21:04;;;;;;;2.77;2.13;;;18.10;99.90;;;;;;5049951;28;20715;-74
2021/07/05 04:23:29;;;;;;;3.00;2.47;;;18.10;99.90;;;;;;5057131;28;20655;-74
2021/07/05 04:25:55;;;;;;;2.83;2.53;;;18.20;99.90;;;;;;5057116;28;20432;-74
2021/07/05 04:28:21;;;;;;;4.70;2.78;;;18.20;99.90;;;;;;5055002;28;20458;-74
2021/07/05 04:30:47;;;;;;;2.97;2.23;;;18.20;99.90;;;;;;5056368;28;20539;-74
2021/07/05 04:33:12;;;;;;;3.07;2.60;;;18.20;99.90;;;;;;5056480;28;20174;-74
2021/07/05 04:35:38;;;;;;;3.10;2.37;;;18.30;99.90;;;;;;5056655;28;20436;-74
2021/07/05 04:38:04;;;;;;;4.63;2.73;;;18.30;99.90;;;;;;5056754;28;20166;-75
2021/07/05 04:40:38;;;;;;;3.57;3.03;;;18.20;99.90;;;;;;5041315;28;20226;-75
2021/07/05 04:43:04;;;;;;;3.50;2.77;;;18.20;99.90;;;;;;5036442;28;20765;-75
2021/07/05 04:45:32;;;;;;;3.97;2.40;;;18.10;99.90;;;;;;5037195;28;20429;-74
2021/07/05 04:48:00;;;;;;;4.23;2.60;;;17.90;99.90;;;;;;5056351;28;20469;-73
2021/07/05 04:50:26;;;;;;;1.83;1.70;;;17.70;99.90;;;;;;5048017;28;20420;-74
2021/07/05 04:52:52;;;;;;;2.13;1.90;;;17.60;99.90;;;;;;5036681;28;20769;-74
2021/07/05 04:55:19;;;;;;;2.47;1.70;;;17.60;99.90;;;;;;5036655;28;20191;-74
2021/07/05 04:57:46;;;;;;;1.53;1.43;;;17.30;99.90;;;;;;5036498;28;20311;-74
2021/07/05 05:00:15;;;;;;;2.83;1.50;;;17.20;99.90;;;;;;5039177;28;20433;-74
2021/07/05 05:02:41;;;;;;;2.88;2.00;;;17.20;99.90;;;;;;5055761;28;20392;-74
2021/07/05 05:05:08;;;;;;;2.07;1.50;;;17.10;99.90;;;;;;5056166;28;20575;-74
2021/07/05 05:07:35;;;;;;;2.20;1.80;;;16.90;99.90;;;;;;5054389;28;20425;-74
2021/07/05 05:10:02;;;;;;;2.80;1.80;;;16.80;99.90;;;;;;5042960;28;20508;-75
2021/07/05 05:12:29;;;;;;;3.80;2.07;;;16.50;99.90;;;;;;5035737;28;20178;-75
2021/07/05 05:14:55;;;;;;;2.70;1.97;;;16.50;99.90;;;;;;5036043;28;20478;-75
2021/07/05 05:17:21;;;;;;;1.70;1.60;;;16.50;99.90;;;;;;5036443;28;20468;-75
2021/07/05 05:19:47;;;;;;;3.97;1.97;;;16.40;99.90;;;;;;5036964;28;20417;-74
2021/07/05 05:22:13;;;;;;;2.30;2.10;;;16.40;99.90;;;;;;5035502;28;20723;-74
2021/07/05 05:24:38;;;;;;;2.50;2.23;;;16.40;99.90;;;;;;5036186;28;20324;-74
2021/07/05 05:27:04;;;;;;;3.77;1.97;;;16.40;99.90;;;;;;5044207;28;20463;-74
2021/07/05 05:29:30;;;;;;;5.07;2.53;;;16.40;99.90;;;;;;5046250;28;20187;-74
2021/07/05 05:31:55;;;;;;;2.53;2.30;;;16.40;99.90;;;;;;5053314;28;20182;-74
2021/07/05 05:34:21;;;;;;;7.30;3.20;;;16.40;99.90;;;;;;5055386;28;20584;-74
2021/07/05 05:36:47;;;;;;;3.67;2.43;;;16.40;99.90;;;;;;5054193;28;20193;-74
2021/07/05 05:39:13;;;;;;;3.13;2.83;;;16.40;99.90;;;;;;5055913;28;20182;-74
2021/07/05 05:41:38;;;;;;;3.43;2.20;;;16.40;99.90;;;;;;5044748;28;20448;-74
2021/07/05 05:44:04;;;;;;;3.87;2.07;;;16.30;99.90;;;;;;5035463;28;20213;-75
2021/07/05 05:46:32;;;;;;;2.37;1.80;;;16.30;99.90;;;;;;5049189;28;20206;-75
2021/07/05 05:49:00;;;;;;;3.70;2.87;;;16.20;99.90;;;;;;5055733;28;20405;-73
2021/07/05 05:51:31;;;;;;;3.10;1.90;;;16.30;99.90;;;;;;5053563;28;20771;-73
2021/07/05 05:53:58;;;;;;;6.63;2.33;;;16.40;99.90;;;;;;5037792;28;20463;-74
2021/07/05 05:56:23;;;;;;;2.87;1.70;;;16.30;99.90;;;;;;5055147;28;20941;-74
2021/07/05 05:58:49;;;;;;;4.33;2.23;;;16.40;99.90;;;;;;5055416;28;20471;-74
2021/07/05 06:01:15;;;;;;;2.10;1.80;;;16.30;99.90;;;;;;5055459;28;20186;-74
2021/07/05 06:03:40;;;;;;;3.23;1.47;;;16.30;99.90;;;;;;5053716;28;20185;-74
2021/07/05 06:06:06;;;;;;;2.80;1.63;;;16.40;99.90;;;;;;5055993;28;20212;-74
2021/07/05 06:08:31;;;;;;;2.40;1.60;;;16.40;99.90;;;;;;5055623;28;20210;-74
2021/07/05 06:10:57;;;;;;;2.07;1.73;;;16.50;99.90;;;;;;5055616;28;20188;-74
2021/07/05 06:13:22;;;;;;;5.17;2.33;;;16.60;99.90;;;;;;5045907;28;20651;-74
2021/07/05 06:15:48;;;;;;;2.20;2.00;;;16.60;99.90;;;;;;5035291;28;20191;-74
2021/07/05 06:18:13;;;;;;;3.93;1.93;;;16.70;99.90;;;;;;5035015;28;20656;-74
2021/07/05 06:20:39;;;;;;;3.70;2.20;;;16.60;99.90;;;;;;5034810;28;20198;-75
2021/07/05 06:23:14;;;;;;;2.83;1.70;;;16.70;99.90;;;;;;5034848;28;20178;-74
2021/07/05 06:25:40;;;;;;;2.30;1.70;;;16.70;99.90;;;;;;5036975;28;20274;-74
2021/07/05 06:28:05;;;;;;;2.93;1.60;;;16.70;99.90;;;;;;5043767;28;20935;-76
2021/07/05 06:30:31;;;;;;;3.27;2.20;;;16.70;99.90;;;;;;5038393;28;20195;-74
2021/07/05 06:32:57;;;;;;;1.77;1.63;;;16.80;99.90;;;;;;5050467;28;20183;-75
2021/07/05 06:35:22;;;;;;;2.60;1.95;;;16.90;99.90;;;;;;5041787;28;20413;-74
2021/07/05 06:37:48;;;;;;;5.03;2.43;;;16.90;99.90;;;;;;5034447;28;20528;-74
2021/07/05 06:40:13;;;;;;;2.13;1.60;;;16.90;99.90;;;;;;5034906;28;20178;-74
2021/07/05 06:42:39;;;;;;;1.80;1.60;;;17.00;99.90;;;;;;5034857;28;20162;-75
2021/07/05 06:45:06;;;;;;;2.93;1.60;;;17.20;99.90;;;;;;5035140;28;20254;-73
2021/07/05 06:47:32;;;;;;;2.87;2.07;;;17.40;99.90;;;;;;5035409;28;20237;-76
2021/07/05 06:49:57;;;;;;;3.00;1.90;;;17.50;99.90;;;;;;5052948;28;20428;-75
2021/07/05 06:52:23;;;;;;;1.80;1.57;;;17.70;99.90;;;;;;5039917;28;20182;-74
2021/07/05 06:54:48;;;;;;;2.60;1.80;;;17.80;99.90;;;;;;5034653;28;20223;-75
2021/07/05 06:57:29;;;;;;;1.90;1.70;;;17.90;99.90;;;;;;5036332;28;20236;-75
2021/07/05 06:59:56;;;;;;;2.30;2.10;;;18.10;99.90;;;;;;5034866;28;20571;-74
2021/07/05 07:02:22;;;;;;;3.17;1.50;;;18.10;99.90;;;;;;5034572;28;20464;-74
2021/07/05 07:04:48;;;;;;;4.70;2.23;;;18.10;99.90;;;;;;5034135;28;20426;-75
2021/07/05 07:07:13;;;;;;;4.07;2.27;;;18.20;99.90;;;;;;5036064;28;20179;-74
2021/07/05 07:09:39;;;;;;;2.93;1.80;;;18.30;99.90;;;;;;5035536;28;20269;-74
2021/07/05 07:12:05;;;;;;;4.40;2.40;;;18.30;99.90;;;;;;5038548;28;20209;-74
2021/07/05 07:14:30;;;;;;;3.40;1.87;;;18.20;99.90;;;;;;5041817;28;20241;-74
2021/07/05 07:17:04;;;;;;;14.87;4.93;;;18.30;99.90;;;;;;5047121;28;20450;-74
2021/07/05 07:19:31;;;;;;;16.33;4.70;;;18.30;99.90;;;;;;5048739;28;20424;-74
2021/07/05 07:21:58;;;;;;;7.83;2.93;;;18.30;99.90;;;;;;5046264;28;21088;-74
2021/07/05 07:24:24;;;;;;;4.07;2.60;;;18.10;99.90;;;;;;5038437;28;20413;-75
2021/07/05 07:26:49;;;;;;;6.30;2.60;;;18.20;99.90;;;;;;5053680;28;20453;-75
2021/07/05 07:29:15;;;;;;;3.93;2.60;;;18.40;99.90;;;;;;5052212;28;20173;-75
2021/07/05 07:31:41;;;;;;;5.13;3.13;;;18.50;99.90;;;;;;5050835;28;20312;-75
2021/07/05 07:34:08;;;;;;;5.00;3.13;;;18.50;99.90;;;;;;5047818;28;20312;-74
2021/07/05 07:36:34;;;;;;;4.70;3.20;;;18.50;99.90;;;;;;5013879;28;20480;-76
2021/07/05 07:39:04;;;;;;;3.90;2.53;;;18.50;99.90;;;;;;5032274;28;20441;-76
2021/07/05 07:41:33;;;;;;;4.30;2.97;;;18.60;99.90;;;;;;5028984;28;20256;-76
2021/07/05 07:43:59;;;;;;;3.70;2.60;;;18.70;99.90;;;;;;5030270;28;20922;-76
2021/07/05 07:46:25;;;;;;;4.90;3.47;;;18.70;99.90;;;;;;5029999;28;20473;-76
2021/07/05 07:48:51;;;;;;;3.97;2.90;;;18.70;99.90;;;;;;5032156;28;20958;-75
2021/07/05 07:51:16;;;;;;;6.57;3.63;;;18.70;99.90;;;;;;5049581;28;20182;-76
2021/07/05 07:53:42;;;;;;;5.80;2.93;;;18.60;99.90;;;;;;5050106;28;20658;-74
2021/07/05 07:56:07;;;;;;;4.30;3.20;;;18.60;99.90;;;;;;5050165;28;20248;-74
2021/07/05 07:58:33;;;;;;;27.53;6.23;;;18.70;99.90;;;;;;5050107;28;20202;-75
2021/07/05 08:00:58;;;;;;;13.10;3.70;;;18.70;99.90;;;;;;5033709;28;20206;-76
2021/07/05 08:03:26;;;;;;;4.83;3.47;;;18.80;99.90;;;;;;5059874;28;20264;-76
2021/07/05 08:05:52;;;;;;;5.07;3.43;;;18.80;99.90;;;;;;5069802;28;20201;-75
2021/07/05 08:08:18;;;;;;;6.10;4.47;;;18.90;99.90;;;;;;5070321;28;20403;-76
2021/07/05 08:10:44;;;;;;;6.37;4.20;;;19.00;99.90;;;;;;5050061;28;20651;-76
2021/07/05 08:13:09;;;;;;;5.27;4.30;;;19.00;99.90;;;;;;5031238;28;20409;-75
2021/07/05 08:15:35;;;;;;;5.27;4.53;;;18.90;99.90;;;;;;5049274;28;20202;-76
2021/07/05 08:18:01;;;;;;;6.73;5.30;;;18.90;99.90;;;;;;5049291;28;20193;-75
2021/07/05 08:20:26;;;;;;;6.30;5.03;;;18.80;99.90;;;;;;5038452;28;20214;-75
2021/07/05 08:22:54;;;;;;;5.53;5.03;;;18.90;99.90;;;;;;5057492;28;20273;-76
2021/07/05 08:25:21;;;;;;;20.00;6.13;;;18.90;99.90;;;;;;5057821;28;20194;-75
2021/07/05 08:27:47;;;;;;;9.33;6.00;;;19.00;99.90;;;;;;5037303;28;20417;-68
2021/07/05 08:30:13;;;;;;;5.73;4.50;;;19.10;99.90;;;;;;5050312;28;20425;-66
2021/07/05 08:32:39;;;;;;;7.70;5.57;;;19.20;99.90;;;;;;5050470;28;20190;-68
2021/07/05 08:35:06;;;;;;;8.47;5.83;;;19.40;99.90;;;;;;5052913;28;20198;-69
2021/07/05 08:37:31;;;;;;;6.10;4.50;;;19.60;99.90;;;;;;5054432;28;20424;-68
2021/07/05 08:39:57;;;;;;;6.13;4.07;;;19.80;99.90;;;;;;5052615;28;20439;-68
2021/07/05 08:42:25;;;;;;;7.57;4.00;;;20.20;99.90;;;;;;5054994;28;20193;-69
2021/07/05 08:44:51;;;;;;;5.57;4.00;;;20.50;99.90;;;;;;5065161;28;20886;-68
2021/07/05 08:47:18;;;;;;;6.27;4.73;;;20.60;99.90;;;;;;5052761;28;20419;-68
2021/07/05 08:49:48;;;;;;;5.67;5.07;;;20.70;99.90;;;;;;5051776;28;20551;-68
2021/07/05 08:52:14;;;;;;;6.40;5.67;;;20.60;99.90;;;;;;5050773;28;20945;-68
2021/07/05 08:54:40;;;;;;;8.10;5.20;;;20.70;99.90;;;;;;5049195;28;20706;-68
2021/07/05 08:57:06;;;;;;;5.60;5.10;;;20.80;99.90;;;;;;5033904;28;21013;-70
2021/07/05 08:59:37;;;;;;;6.10;5.70;;;21.00;99.90;;;;;;5044328;28;20546;-69
2021/07/05 09:02:02;;;;;;;8.00;6.60;;;21.10;99.90;;;;;;5051368;28;20675;-69
2021/07/05 09:04:30;;;;;;;6.67;6.07;;;21.10;99.90;;;;;;5051347;28;20435;-69
2021/07/05 09:07:07;;;;;;;6.53;5.93;;;21.20;99.90;;;;;;5052812;28;20236;-69
2021/07/05 09:09:35;;;;;;;7.47;6.73;;;21.30;99.90;;;;;;5052854;28;20435;-74
2021/07/05 09:12:08;;;;;;;7.43;6.83;;;21.20;99.90;;;;;;5051340;28;20832;-74
2021/07/05 09:14:35;;;;;;;7.67;7.07;;;21.20;99.90;;;;;;5045195;28;20430;-73
2021/07/05 09:17:09;;;;;;;7.83;7.03;;;21.00;99.90;;;;;;5041400;28;20468;-75
2021/07/05 09:19:37;;;;;;;7.40;6.23;;;21.00;99.90;;;;;;5052173;28;20420;-75
2021/07/05 09:22:08;;;;;;;9.83;6.27;;;21.10;99.90;;;;;;5051990;28;20452;-74
2021/07/05 09:24:42;;;;;;;7.13;5.77;;;21.20;99.90;;;;;;5050562;28;20420;-74
2021/07/05 09:27:17;;;;;;;8.03;6.07;;;21.00;99.90;;;;;;5050920;28;20445;-74
2021/07/05 09:29:43;;;;;;;6.30;5.70;;;20.80;99.90;;;;;;5050189;28;20857;-74
2021/07/05 09:32:26;;;;;;;14.80;6.00;;;20.80;99.90;;;;;;5042298;28;20631;-74
2021/07/05 09:34:52;;;;;;;6.03;5.10;;;20.80;99.90;;;;;;5052310;28;20440;-73
2021/07/05 09:37:26;;;;;;;5.83;5.33;;;20.80;99.90;;;;;;5053651;28;20463;-74
2021/07/05 09:40:05;;;;;;;6.33;5.73;;;20.90;99.90;;;;;;5041964;28;20495;-74
2021/07/05 09:42:43;;;;;;;7.40;6.07;;;20.80;99.90;;;;;;5036313;28;20474;-75
2021/07/05 09:45:15;;;;;;;7.00;6.40;;;20.80;99.90;;;;;;5051629;28;20432;-74
2021/07/05 09:47:41;;;;;;;6.70;6.10;;;20.80;99.90;;;;;;5050058;28;20506;-74
2021/07/05 09:50:13;;;;;;;7.00;6.13;;;20.50;99.90;;;;;;5051890;28;20736;-73
2021/07/05 09:52:39;;;;;;;6.80;6.20;;;20.60;99.90;;;;;;5051807;28;20459;-76
2021/07/05 09:55:14;;;;;;;8.27;6.43;;;20.60;99.90;;;;;;5043896;28;20449;-74
2021/07/05 09:57:58;;;;;;;8.67;6.30;;;20.60;99.90;;;;;;5038784;28;20495;-74
2021/07/05 10:00:26;;;;;;;40.75;9.40;;;20.60;99.90;;;;;;5043330;28;20431;-75
2021/07/05 10:03:03;;;;;;;13.40;6.80;;;20.70;99.90;;;;;;5051601;28;20170;-75
2021/07/05 10:05:44;;;;;;;21.48;7.05;;;20.80;99.90;;;;;;5051650;28;20306;-75
2021/07/05 10:08:12;;;;;;;6.03;5.50;;;20.80;99.90;;;;;;5040186;28;20664;-75
2021/07/05 10:10:40;;;;;;;73.90;10.87;;;20.50;99.90;;;;;;5040929;28;20416;-76
2021/07/05 10:13:08;;;;;;;18.20;6.77;;;20.60;99.90;;;;;;5042170;28;20418;-75
2021/07/05 10:15:35;;;;;;;50.97;11.17;;;20.80;99.90;;;;;;5032453;28;20865;-74
2021/07/05 10:18:02;;;;;;;30.50;8.67;;;21.00;99.90;;;;;;5040691;28;20524;-73
2021/07/05 10:20:30;;;;;;;10.43;5.63;;;21.30;99.90;;;;;;5039652;28;20512;-74
2021/07/05 10:22:58;;;;;;;7.87;4.53;;;21.40;99.90;;;;;;5042033;28;20416;-74
2021/07/05 10:25:26;;;;;;;9.73;4.40;;;21.50;99.90;;;;;;5035158;28;20814;-75
2021/07/05 10:27:52;;;;;;;8.33;4.10;;;21.40;99.90;;;;;;5037474;28;20445;-74
2021/07/05 10:30:19;;;;;;;5.10;4.10;;;21.40;99.90;;;;;;5041179;28;20428;-74
2021/07/05 10:32:47;;;;;;;6.50;4.30;;;21.30;99.70;;;;;;5041347;28;20467;-75
2021/07/05 10:35:16;;;;;;;6.60;3.57;;;21.40;99.00;;;;;;5037018;28;20440;-74
2021/07/05 10:38:02;;;;;;;5.20;3.37;;;21.60;99.20;;;;;;5042952;28;20507;-75
2021/07/05 10:40:40;;;;;;;3.70;3.20;;;21.60;98.20;;;;;;5045009;28;20448;-72
2021/07/05 10:43:11;;;;;;;3.50;3.07;;;21.70;98.60;;;;;;5041836;28;20220;-74
2021/07/05 10:45:46;;;;;;;4.60;3.50;;;21.80;99.00;;;;;;5039090;28;20444;-73
2021/07/05 10:48:17;;;;;;;3.70;3.30;;;21.90;99.30;;;;;;5042506;28;20447;-73
2021/07/05 10:50:44;;;;;;;5.37;3.50;;;22.00;99.40;;;;;;5038160;28;20426;-75
2021/07/05 10:53:15;;;;;;;4.40;3.80;;;22.00;99.50;;;;;;5034837;28;20421;-73
2021/07/05 10:55:49;;;;;;;4.80;3.63;;;22.10;99.60;;;;;;5038399;28;20448;-73
2021/07/05 10:58:26;;;;;;;4.10;3.37;;;22.10;99.20;;;;;;5043912;28;20465;-73
2021/07/05 11:01:00;;;;;;;4.73;3.60;;;22.20;98.30;;;;;;5033140;28;20899;-73
2021/07/05 11:03:38;;;;;;;20.73;6.10;;;22.30;97.90;;;;;;5044877;28;20433;-73
2021/07/05 11:06:25;;;;;;;13.20;4.90;;;22.40;98.10;;;;;;5048679;28;20432;-73
2021/07/05 11:08:52;;;;;;;12.70;5.00;;;22.50;97.20;;;;;;5051590;28;20430;-74
2021/07/05 11:11:29;;;;;;;8.33;4.30;;;22.50;97.30;;;;;;5050446;28;20412;-74
2021/07/05 11:14:15;;;;;;;19.13;5.93;;;22.80;97.10;;;;;;5034201;28;20428;-74
2021/07/05 11:16:51;;;;;;;6.20;3.70;;;23.00;96.60;;;;;;5030479;28;20429;-74
2021/07/05 11:19:42;;;;;;;3.63;2.97;;;23.30;96.10;;;;;;5040968;28;20422;-73
2021/07/05 11:22:24;;;;;;;5.53;3.20;;;23.40;95.50;;;;;;5047574;28;20507;-73
2021/07/05 11:25:01;;;;;;;5.00;4.37;;;23.50;95.00;;;;;;5049899;28;20405;-73
2021/07/05 11:27:28;;;;;;;4.90;2.90;;;23.50;94.10;;;;;;5049986;28;20428;-73
2021/07/05 11:29:55;;;;;;;8.77;3.60;;;23.50;93.90;;;;;;5043783;28;20417;-74
2021/07/05 11:32:38;;;;;;;3.60;2.80;;;23.30;92.90;;;;;;5043323;28;20428;-74
2021/07/05 11:35:25;;;;;;;5.90;2.87;;;23.00;92.10;;;;;;5048794;28;20479;-73
2021/07/05 11:37:55;;;;;;;5.00;3.27;;;22.80;92.40;;;;;;5068018;28;20427;-73
2021/07/05 11:40:39;;;;;;;3.60;2.17;;;22.90;93.10;;;;;;5062422;28;20934;-73
2021/07/05 11:43:05;;;;;;;4.90;2.40;;;23.00;93.30;;;;;;5031304;28;20441;-74
2021/07/05 11:45:39;;;;;;;4.63;3.10;;;23.00;93.70;;;;;;5029314;28;20429;-74
2021/07/05 11:48:04;;;;;;;3.23;2.60;;;23.00;93.60;;;;;;5030586;28;20175;-74
2021/07/05 11:50:31;;;;;;;3.20;2.53;;;22.90;93.30;;;;;;5030955;28;20464;-73
2021/07/05 11:53:02;;;;;;;7.50;3.40;;;22.90;93.30;;;;;;5031466;28;20198;-73
2021/07/05 11:55:30;;;;;;;5.37;3.17;;;22.70;93.70;;;;;;5030645;28;20457;-72
2021/07/05 11:57:59;;;;;;;3.47;3.17;;;22.90;94.10;;;;;;5036668;28;20491;-72
2021/07/05 12:00:29;;;;;;;4.17;3.00;;;23.10;94.10;;;;;;5050198;28;20451;-72
2021/07/05 12:03:09;;;;;;;3.60;2.70;;;23.20;93.10;;;;;;5039302;28;20428;-72
2021/07/05 12:05:36;;;;;;;4.22;2.88;;;23.30;92.80;;;;;;5033668;28;20914;-73
2021/07/05 12:08:12;;;;;;;3.77;2.80;;;23.40;92.50;;;;;;5033945;28;20171;-73
2021/07/05 12:10:41;;;;;;;4.50;2.50;;;23.50;92.00;;;;;;5033749;28;20413;-73
2021/07/05 12:13:22;;;;;;;3.70;2.83;;;23.50;91.60;;;;;;5034677;28;20437;-73
2021/07/05 12:16:00;;;;;;;5.63;2.50;;;23.70;90.90;;;;;;5033299;28;20429;-73
2021/07/05 12:18:27;;;;;;;5.07;2.50;;;23.80;88.70;;;;;;5033809;28;20455;-73
2021/07/05 12:21:05;;;;;;;4.17;2.23;;;23.80;88.10;;;;;;5033483;28;20810;-73
2021/07/05 12:23:40;;;;;;;3.43;2.20;;;23.80;88.00;;;;;;5034946;28;20818;-73
2021/07/05 12:26:18;;;;;;;3.20;2.00;;;23.70;88.80;;;;;;5033382;28;20494;-74
2021/07/05 12:29:10;;;;;;;2.40;1.90;;;23.60;88.90;;;;;;5033307;28;20460;-73
2021/07/05 12:31:35;;;;;;;3.30;2.10;;;23.50;89.20;;;;;;5042167;28;20431;-74
2021/07/05 12:34:03;;;;;;;4.70;2.00;;;23.30;90.20;;;;;;5045949;28;20421;-74
2021/07/05 12:36:31;;;;;;;2.40;1.67;;;23.10;90.40;;;;;;5045034;28;20225;-74
2021/07/05 12:39:07;;;;;;;2.63;2.00;;;22.90;90.10;;;;;;5051820;28;20817;-73
2021/07/05 12:41:39;;;;;;;2.27;1.80;;;22.60;90.20;;;;;;5053598;28;20498;-74
2021/07/05 12:44:15;;;;;;;3.30;1.77;;;22.30;91.00;;;;;;5053817;28;20417;-74
2021/07/05 12:46:41;;;;;;;2.70;1.90;;;22.10;90.90;;;;;;5035862;28;20441;-73
2021/07/05 12:49:07;;;;;;;3.50;1.77;;;21.90;91.40;;;;;;5036551;28;20506;-73
2021/07/05 12:51:40;;;;;;;2.33;1.83;;;22.00;91.60;;;;;;5053048;28;20432;-75